createdAt,value
2019-06-09T00:00:33.383Z,6.10
2019-06-09T00:01:42.252Z,7.00
2019-06-09T00:02:33.374Z,9.80
2019-06-09T00:03:33.373Z,4.10
2019-06-09T00:04:33.368Z,9.20
2019-06-09T00:05:33.367Z,4.80
2019-06-09T00:06:33.363Z,5.40
2019-06-09T00:07:33.358Z,6.40
2019-06-09T00:08:33.353Z,7.10
2019-06-09T00:09:33.357Z,6.30
2019-06-09T00:10:33.348Z,6.00
2019-06-09T00:11:33.344Z,4.60
2019-06-09T00:12:33.344Z,33.60
2019-06-09T00:13:33.339Z,24.60
2019-06-09T00:14:33.336Z,18.80
2019-06-09T00:15:33.332Z,17.80
2019-06-09T00:16:33.329Z,71.60
2019-06-09T00:17:33.328Z,29.30
2019-06-09T00:18:33.359Z,32.60
2019-06-09T00:19:33.317Z,40.60
2019-06-09T00:20:33.315Z,67.20
2019-06-09T00:21:33.316Z,19.20
2019-06-09T00:22:33.327Z,9.30
2019-06-09T00:23:33.307Z,10.30
2019-06-09T00:24:33.304Z,4.80
2019-06-09T00:25:33.302Z,9.60
2019-06-09T00:26:33.299Z,8.00
2019-06-09T00:27:33.294Z,6.40
2019-06-09T00:28:33.289Z,4.90
2019-06-09T00:29:33.286Z,7.60
2019-06-09T00:30:33.286Z,14.30
2019-06-09T00:31:45.307Z,10.00
2019-06-09T00:32:33.277Z,11.80
2019-06-09T00:33:33.278Z,47.40
2019-06-09T00:34:33.281Z,54.20
2019-06-09T00:35:33.269Z,34.90
2019-06-09T00:36:33.266Z,28.70
2019-06-09T00:37:33.263Z,16.50
2019-06-09T00:38:33.260Z,9.40
2019-06-09T00:39:33.256Z,23.40
2019-06-09T00:40:33.253Z,18.90
2019-06-09T00:41:33.250Z,22.80
2019-06-09T00:42:33.246Z,11.90
2019-06-09T00:43:33.244Z,6.90
2019-06-09T00:44:33.239Z,15.00
2019-06-09T00:45:33.236Z,9.00
2019-06-09T00:46:33.233Z,17.30
2019-06-09T00:47:33.229Z,37.30
2019-06-09T00:48:33.224Z,13.50
2019-06-09T00:49:33.227Z,15.80
2019-06-09T00:50:33.220Z,8.40
2019-06-09T00:51:33.220Z,8.30
2019-06-09T00:52:33.212Z,5.80
2019-06-09T00:53:33.215Z,5.60
2019-06-09T00:54:33.207Z,10.10
2019-06-09T00:55:33.212Z,9.10
2019-06-09T00:56:33.199Z,6.90
2019-06-09T00:57:33.199Z,7.60
2019-06-09T00:58:33.194Z,7.70
2019-06-09T00:59:33.188Z,6.30
2019-06-09T01:00:33.185Z,8.80
2019-06-09T01:01:33.182Z,5.90
2019-06-09T01:02:33.180Z,3.80
2019-06-09T01:03:33.174Z,8.60
2019-06-09T01:04:33.173Z,6.40
2019-06-09T01:05:33.170Z,7.10
2019-06-09T01:06:33.170Z,6.10
2019-06-09T01:07:33.166Z,6.70
2019-06-09T01:08:33.159Z,7.10
2019-06-09T01:09:33.156Z,6.10
2019-06-09T01:10:33.153Z,9.40
2019-06-09T01:11:33.155Z,17.30
2019-06-09T01:12:33.150Z,31.30
2019-06-09T01:13:33.142Z,23.80
2019-06-09T01:14:33.139Z,24.80
2019-06-09T01:15:33.138Z,17.70
2019-06-09T01:16:33.131Z,25.70
2019-06-09T01:17:33.128Z,20.60
2019-06-09T01:18:33.124Z,16.50
2019-06-09T01:19:33.122Z,14.50
2019-06-09T01:20:33.118Z,10.20
2019-06-09T01:21:33.116Z,9.10
2019-06-09T01:22:33.113Z,11.60
2019-06-09T01:23:33.109Z,9.70
2019-06-09T01:24:33.105Z,12.60
2019-06-09T01:25:33.103Z,14.90
2019-06-09T01:26:33.106Z,17.50
2019-06-09T01:27:33.095Z,16.90
2019-06-09T01:28:33.093Z,11.70
2019-06-09T01:29:33.088Z,30.60
2019-06-09T01:30:33.086Z,67.20
2019-06-09T01:31:33.082Z,22.90
2019-06-09T01:32:35.145Z,60.00
2019-06-09T01:33:33.075Z,10.40
2019-06-09T01:34:33.071Z,8.70
2019-06-09T01:35:33.068Z,7.20
2019-06-09T01:36:33.066Z,7.70
2019-06-09T01:37:33.062Z,5.20
2019-06-09T01:38:33.059Z,7.30
2019-06-09T01:39:33.054Z,4.10
2019-06-09T01:40:33.055Z,5.00
2019-06-09T01:41:33.051Z,5.20
2019-06-09T01:42:33.044Z,6.00
2019-06-09T01:43:33.043Z,5.70
2019-06-09T01:44:33.038Z,7.80
2019-06-09T01:45:33.036Z,4.70
2019-06-09T01:46:33.031Z,3.30
2019-06-09T01:47:33.028Z,11.20
2019-06-09T01:48:33.022Z,5.90
2019-06-09T01:49:33.020Z,4.00
2019-06-09T01:50:33.014Z,6.50
2019-06-09T01:51:33.012Z,3.60
2019-06-09T01:52:33.007Z,5.30
2019-06-09T01:53:33.005Z,5.10
2019-06-09T01:54:33.000Z,4.20
2019-06-09T01:55:32.997Z,3.40
2019-06-09T01:56:32.995Z,4.00
2019-06-09T01:57:33.002Z,3.00
2019-06-09T01:58:32.988Z,3.60
2019-06-09T01:59:32.984Z,3.30
2019-06-09T02:00:32.979Z,6.00
2019-06-09T02:01:32.977Z,4.40
2019-06-09T02:02:45.578Z,6.40
2019-06-09T02:03:32.969Z,3.70
2019-06-09T02:04:32.967Z,3.50
2019-06-09T02:05:32.959Z,3.80
2019-06-09T02:06:32.968Z,5.70
2019-06-09T02:07:32.954Z,4.00
2019-06-09T02:08:32.958Z,5.30
2019-06-09T02:09:32.946Z,3.20
2019-06-09T02:10:32.950Z,29.70
2019-06-09T02:11:32.943Z,8.20
2019-06-09T02:12:32.933Z,7.10
2019-06-09T02:13:32.931Z,4.60
2019-06-09T02:14:32.928Z,3.20
2019-06-09T02:15:32.923Z,4.40
2019-06-09T02:16:32.917Z,6.50
2019-06-09T02:17:32.913Z,3.80
2019-06-09T02:18:32.912Z,4.10
2019-06-09T02:19:32.906Z,4.40
2019-06-09T02:20:32.902Z,6.10
2019-06-09T02:21:32.900Z,3.40
2019-06-09T02:22:32.896Z,5.30
2019-06-09T02:23:32.892Z,4.30
2019-06-09T02:24:32.892Z,4.50
2019-06-09T02:25:32.897Z,3.90
2019-06-09T02:26:32.879Z,3.80
2019-06-09T02:27:32.871Z,7.10
2019-06-09T02:28:32.874Z,5.30
2019-06-09T02:29:32.879Z,5.00
2019-06-09T02:30:39.679Z,5.10
2019-06-09T02:31:38.755Z,5.50
2019-06-09T02:32:37.804Z,4.50
2019-06-09T02:33:44.868Z,5.10
2019-06-09T02:34:39.873Z,7.10
2019-06-09T02:35:34.131Z,7.60
2019-06-09T02:36:42.871Z,5.00
2019-06-09T02:37:36.449Z,6.30
2019-06-09T02:38:37.048Z,5.10
2019-06-09T02:39:37.734Z,3.10
2019-06-09T02:40:36.947Z,2.80
2019-06-09T02:41:36.601Z,3.90
2019-06-09T02:42:36.262Z,6.40
2019-06-09T02:43:37.621Z,5.90
2019-06-09T02:44:36.614Z,3.90
2019-06-09T02:45:35.911Z,4.40
2019-06-09T02:46:35.916Z,4.20
2019-06-09T02:47:37.382Z,4.50
2019-06-09T02:48:37.300Z,6.50
2019-06-09T02:49:40.187Z,5.60
2019-06-09T02:50:37.171Z,4.90
2019-06-09T02:51:36.787Z,4.10
2019-06-09T02:52:39.084Z,4.60
2019-06-09T02:53:38.556Z,9.80
2019-06-09T02:54:41.150Z,5.70
2019-06-09T02:55:38.889Z,4.80
2019-06-09T02:56:37.316Z,3.00
2019-06-09T02:57:39.392Z,3.50
2019-06-09T02:58:42.012Z,4.20
2019-06-09T02:59:41.826Z,6.30
2019-06-09T03:00:39.013Z,4.30
2019-06-09T03:01:43.452Z,3.70
2019-06-09T03:02:40.482Z,5.60
2019-06-09T03:03:56.019Z,5.20
2019-06-09T03:04:44.689Z,5.00
2019-06-09T03:05:37.496Z,5.40
2019-06-09T03:06:39.402Z,6.00
2019-06-09T03:07:40.505Z,6.80
2019-06-09T03:08:39.003Z,5.30
2019-06-09T03:09:40.081Z,6.40
2019-06-09T03:10:39.638Z,6.40
2019-06-09T03:11:36.722Z,5.30
2019-06-09T03:12:39.156Z,4.90
2019-06-09T03:13:39.695Z,4.70
2019-06-09T03:14:39.001Z,5.40
2019-06-09T03:15:39.088Z,5.30
2019-06-09T03:16:39.388Z,6.20
2019-06-09T03:17:40.065Z,3.90
2019-06-09T03:18:38.894Z,4.30
2019-06-09T03:19:39.093Z,4.90
2019-06-09T03:20:40.857Z,5.70
2019-06-09T03:21:40.266Z,3.30
2019-06-09T03:22:40.726Z,4.70
2019-06-09T03:23:39.792Z,6.70
2019-06-09T03:24:40.021Z,4.20
2019-06-09T03:25:39.085Z,7.10
2019-06-09T03:26:39.880Z,3.30
2019-06-09T03:27:40.399Z,6.20
2019-06-09T03:28:39.152Z,4.90
2019-06-09T03:29:41.346Z,7.90
2019-06-09T03:30:51.423Z,3.60
2019-06-09T03:32:04.075Z,4.60
2019-06-09T03:33:14.962Z,5.20
2019-06-09T03:34:25.694Z,3.00
2019-06-09T03:36:15.105Z,4.70
2019-06-09T03:38:08.635Z,5.60
2019-06-09T03:38:46.363Z,4.40
2019-06-09T03:39:41.298Z,5.00
2019-06-09T03:40:39.189Z,6.10
2019-06-09T03:41:39.157Z,5.60
2019-06-09T03:42:39.655Z,5.20
2019-06-09T03:43:41.041Z,4.00
2019-06-09T03:44:39.984Z,4.70
2019-06-09T03:45:39.539Z,6.60
2019-06-09T03:46:40.290Z,4.90
2019-06-09T03:47:40.902Z,5.50
2019-06-09T03:48:38.484Z,6.50
2019-06-09T03:49:40.433Z,8.80
2019-06-09T03:50:46.271Z,7.60
2019-06-09T03:51:38.206Z,6.20
2019-06-09T03:52:37.666Z,7.10
2019-06-09T03:53:41.164Z,5.50
2019-06-09T03:54:41.164Z,6.60
2019-06-09T03:55:42.531Z,3.90
2019-06-09T03:56:40.383Z,4.70
2019-06-09T03:57:40.221Z,4.60
2019-06-09T03:58:41.834Z,7.20
2019-06-09T03:59:42.117Z,5.10
2019-06-09T04:00:42.758Z,6.40
2019-06-09T04:01:39.209Z,4.20
2019-06-09T04:02:39.809Z,5.80
2019-06-09T04:03:40.986Z,5.90
2019-06-09T04:04:41.103Z,8.70
2019-06-09T04:05:58.664Z,4.70
2019-06-09T04:06:48.336Z,5.50
2019-06-09T04:07:39.381Z,4.50
2019-06-09T04:08:40.614Z,5.50
2019-06-09T04:09:38.629Z,7.10
2019-06-09T04:10:39.757Z,6.90
2019-06-09T04:11:39.175Z,8.00
2019-06-09T04:12:39.407Z,4.80
2019-06-09T04:13:39.966Z,4.70
2019-06-09T04:14:39.820Z,4.40
2019-06-09T04:15:38.862Z,5.40
2019-06-09T04:16:32.440Z,4.70
2019-06-09T04:17:39.151Z,5.80
2019-06-09T04:18:38.995Z,7.10
2019-06-09T04:19:41.035Z,4.90
2019-06-09T04:20:40.160Z,4.90
2019-06-09T04:21:40.186Z,5.40
2019-06-09T04:22:44.287Z,5.40
2019-06-09T04:23:40.351Z,6.40
2019-06-09T04:24:39.539Z,8.70
2019-06-09T04:25:38.583Z,6.00
2019-06-09T04:26:37.752Z,6.70
2019-06-09T04:27:42.392Z,6.60
2019-06-09T04:28:40.352Z,5.60
2019-06-09T04:29:37.126Z,3.50
2019-06-09T04:30:41.181Z,6.40
2019-06-09T04:31:39.171Z,6.00
2019-06-09T04:32:37.241Z,7.60
2019-06-09T04:33:38.089Z,2.90
2019-06-09T04:34:40.137Z,5.20
2019-06-09T04:35:41.745Z,4.10
2019-06-09T04:36:46.246Z,4.50
2019-06-09T04:37:37.923Z,7.40
2019-06-09T04:38:38.578Z,4.20
2019-06-09T04:39:38.816Z,5.20
2019-06-09T04:40:37.983Z,3.60
2019-06-09T04:41:36.500Z,8.70
2019-06-09T04:42:40.224Z,6.90
2019-06-09T04:43:36.404Z,7.70
2019-06-09T04:44:37.880Z,5.50
2019-06-09T04:45:38.563Z,7.50
2019-06-09T04:46:39.897Z,8.80
2019-06-09T04:47:36.362Z,6.70
2019-06-09T04:48:37.799Z,5.60
2019-06-09T04:49:40.608Z,6.50
2019-06-09T04:50:38.860Z,4.00
2019-06-09T04:51:36.666Z,5.20
2019-06-09T04:52:39.221Z,6.30
2019-06-09T04:53:39.842Z,5.50
2019-06-09T04:54:37.810Z,9.20
2019-06-09T04:55:35.820Z,6.30
2019-06-09T04:56:36.799Z,5.70
2019-06-09T04:57:36.525Z,8.60
2019-06-09T04:58:43.676Z,6.60
2019-06-09T04:59:36.595Z,4.20
2019-06-09T05:00:37.538Z,5.40
2019-06-09T05:01:38.345Z,5.40
2019-06-09T05:02:37.463Z,4.90
2019-06-09T05:03:37.534Z,5.20
2019-06-09T05:04:40.269Z,5.00
2019-06-09T05:05:36.069Z,6.50
2019-06-09T05:06:54.662Z,4.30
2019-06-09T05:07:45.403Z,2.80
2019-06-09T05:08:38.020Z,5.60
2019-06-09T05:09:36.493Z,5.10
2019-06-09T05:10:38.695Z,7.00
2019-06-09T05:11:38.525Z,3.90
2019-06-09T05:12:37.769Z,5.00
2019-06-09T05:13:37.596Z,4.80
2019-06-09T05:14:34.974Z,3.60
2019-06-09T05:15:37.768Z,5.30
2019-06-09T05:16:34.955Z,7.50
2019-06-09T05:17:36.555Z,5.10
2019-06-09T05:18:36.053Z,4.90
2019-06-09T05:19:38.252Z,5.20
2019-06-09T05:20:36.961Z,4.60
2019-06-09T05:21:35.807Z,3.70
2019-06-09T05:22:37.480Z,3.90
2019-06-09T05:23:37.358Z,4.30
2019-06-09T05:24:36.702Z,3.30
2019-06-09T05:25:36.150Z,4.90
2019-06-09T05:26:35.842Z,5.10
2019-06-09T05:27:35.824Z,4.00
2019-06-09T05:28:36.767Z,5.40
2019-06-09T05:29:36.183Z,6.40
2019-06-09T05:30:35.141Z,5.10
2019-06-09T05:31:37.219Z,10.00
2019-06-09T05:32:35.946Z,6.50
2019-06-09T05:33:35.760Z,7.10
2019-06-09T05:34:35.439Z,4.50
2019-06-09T05:35:36.325Z,6.60
2019-06-09T05:36:37.851Z,4.80
2019-06-09T05:37:35.423Z,6.50
2019-06-09T05:38:38.703Z,5.50
2019-06-09T05:39:37.966Z,6.80
2019-06-09T05:40:35.064Z,5.20
2019-06-09T05:41:33.933Z,7.60
2019-06-09T05:42:34.267Z,5.90
2019-06-09T05:43:34.532Z,4.80
2019-06-09T05:44:33.690Z,4.50
2019-06-09T05:45:34.001Z,5.30
2019-06-09T05:46:33.431Z,4.40
2019-06-09T05:47:34.144Z,7.30
2019-06-09T05:48:35.181Z,4.70
2019-06-09T05:49:34.487Z,4.50
2019-06-09T05:50:34.181Z,6.00
2019-06-09T05:51:34.317Z,5.50
2019-06-09T05:52:34.347Z,5.30
2019-06-09T05:53:33.821Z,4.50
2019-06-09T05:54:33.414Z,5.70
2019-06-09T05:55:34.659Z,5.80
2019-06-09T05:56:33.192Z,3.90
2019-06-09T05:57:33.884Z,5.50
2019-06-09T05:58:34.851Z,6.90
2019-06-09T05:59:34.045Z,4.00
2019-06-09T06:00:34.790Z,4.60
2019-06-09T06:01:34.887Z,6.00
2019-06-09T06:02:33.008Z,5.80
2019-06-09T06:03:33.340Z,7.60
2019-06-09T06:04:33.268Z,5.70
2019-06-09T06:05:33.739Z,5.40
2019-06-09T06:06:32.286Z,4.60
2019-06-09T06:07:33.317Z,5.40
2019-06-09T06:08:32.608Z,7.50
2019-06-09T06:09:32.892Z,9.50
2019-06-09T06:10:33.585Z,7.00
2019-06-09T06:11:32.449Z,8.10
2019-06-09T06:12:33.419Z,7.50
2019-06-09T06:13:34.365Z,6.70
2019-06-09T06:14:32.557Z,4.80
2019-06-09T06:15:32.945Z,6.70
2019-06-09T06:16:33.108Z,7.70
2019-06-09T06:17:32.545Z,9.00
2019-06-09T06:18:33.403Z,5.20
2019-06-09T06:19:32.713Z,6.80
2019-06-09T06:20:32.723Z,7.80
2019-06-09T06:21:33.368Z,8.70
2019-06-09T06:22:32.662Z,7.50
2019-06-09T06:23:33.157Z,7.60
2019-06-09T06:24:32.915Z,6.70
2019-06-09T06:25:34.836Z,5.40
2019-06-09T06:26:34.364Z,5.60
2019-06-09T06:27:33.276Z,5.70
2019-06-09T06:28:33.275Z,6.90
2019-06-09T06:29:33.427Z,10.30
2019-06-09T06:30:32.180Z,9.40
2019-06-09T06:31:32.181Z,4.70
2019-06-09T06:32:32.179Z,4.90
2019-06-09T06:33:32.181Z,8.60
2019-06-09T06:34:32.179Z,7.10
2019-06-09T06:35:32.182Z,4.50
2019-06-09T06:36:32.180Z,4.80
2019-06-09T06:37:38.602Z,9.30
2019-06-09T06:38:32.183Z,5.30
2019-06-09T06:39:32.179Z,3.50
2019-06-09T06:40:32.181Z,7.20
2019-06-09T06:41:32.184Z,5.30
2019-06-09T06:42:32.181Z,4.30
2019-06-09T06:43:32.181Z,4.50
2019-06-09T06:44:32.181Z,6.20
2019-06-09T06:45:32.184Z,5.50
2019-06-09T06:46:34.948Z,5.20
2019-06-09T06:47:32.181Z,4.90
2019-06-09T06:48:32.180Z,6.50
2019-06-09T06:49:32.185Z,4.70
2019-06-09T06:50:32.202Z,8.00
2019-06-09T06:51:32.181Z,5.00
2019-06-09T06:52:32.179Z,6.20
2019-06-09T06:53:32.181Z,5.70
2019-06-09T06:54:32.182Z,7.50
2019-06-09T06:55:35.106Z,6.90
2019-06-09T06:56:32.180Z,3.50
2019-06-09T06:57:32.182Z,4.00
2019-06-09T06:58:32.263Z,4.40
2019-06-09T06:59:32.185Z,5.70
2019-06-09T07:00:32.207Z,4.60
2019-06-09T07:01:32.181Z,6.60
2019-06-09T07:02:32.181Z,7.00
2019-06-09T07:03:32.181Z,5.40
2019-06-09T07:04:32.364Z,4.10
2019-06-09T07:05:32.183Z,4.80
2019-06-09T07:06:32.182Z,3.20
2019-06-09T07:07:32.181Z,5.20
2019-06-09T07:08:32.180Z,8.00
2019-06-09T07:09:32.205Z,6.00
2019-06-09T07:10:32.207Z,5.30
2019-06-09T07:11:32.180Z,4.30
2019-06-09T07:12:32.183Z,6.50
2019-06-09T07:13:32.183Z,4.50
2019-06-09T07:14:32.183Z,6.50
2019-06-09T07:15:32.180Z,4.50
2019-06-09T07:16:32.181Z,10.20
2019-06-09T07:17:32.180Z,6.70
2019-06-09T07:18:32.365Z,6.60
2019-06-09T07:19:32.179Z,5.90
2019-06-09T07:20:32.185Z,9.20
2019-06-09T07:21:32.180Z,5.80
2019-06-09T07:22:32.179Z,4.60
2019-06-09T07:23:32.180Z,10.20
2019-06-09T07:24:32.176Z,5.40
2019-06-09T07:25:32.179Z,5.30
2019-06-09T07:26:32.180Z,4.80
2019-06-09T07:27:32.180Z,7.10
2019-06-09T07:28:32.179Z,3.90
2019-06-09T07:29:32.405Z,5.70
2019-06-09T07:30:32.187Z,5.90
2019-06-09T07:31:32.187Z,3.60
2019-06-09T07:32:32.182Z,3.30
2019-06-09T07:33:32.182Z,5.60
2019-06-09T07:34:32.187Z,2.60
2019-06-09T07:35:32.179Z,2.90
2019-06-09T07:36:32.180Z,3.70
2019-06-09T07:37:32.337Z,3.20
2019-06-09T07:38:32.485Z,3.20
2019-06-09T07:39:32.294Z,5.30
2019-06-09T07:40:32.243Z,4.10
2019-06-09T07:41:32.189Z,3.30
2019-06-09T07:42:32.180Z,6.50
2019-06-09T07:43:32.299Z,4.90
2019-06-09T07:44:32.587Z,2.70
2019-06-09T07:45:32.182Z,4.60
2019-06-09T07:46:32.697Z,5.10
2019-06-09T07:47:32.335Z,3.40
2019-06-09T07:48:32.183Z,2.70
2019-06-09T07:49:32.453Z,4.70
2019-06-09T07:50:32.185Z,5.10
2019-06-09T07:51:32.194Z,2.40
2019-06-09T07:52:32.186Z,5.50
2019-06-09T07:53:32.190Z,2.30
2019-06-09T07:54:32.183Z,2.80
2019-06-09T07:55:32.186Z,3.80
2019-06-09T07:56:32.185Z,5.40
2019-06-09T07:57:32.189Z,4.10
2019-06-09T07:58:32.261Z,3.70
2019-06-09T07:59:32.186Z,2.40
2019-06-09T08:00:32.188Z,1.80
2019-06-09T08:01:32.189Z,2.60
2019-06-09T08:02:32.188Z,1.90
2019-06-09T08:03:32.471Z,1.90
2019-06-09T08:04:32.407Z,5.20
2019-06-09T08:05:32.192Z,2.90
2019-06-09T08:06:32.191Z,2.50
2019-06-09T08:07:32.189Z,2.70
2019-06-09T08:08:40.671Z,2.00
2019-06-09T08:09:32.190Z,2.40
2019-06-09T08:10:32.194Z,4.70
2019-06-09T08:11:32.193Z,3.60
2019-06-09T08:12:32.198Z,4.60
2019-06-09T08:13:32.193Z,1.90
2019-06-09T08:14:32.251Z,3.50
2019-06-09T08:15:32.199Z,5.50
2019-06-09T08:16:32.195Z,6.30
2019-06-09T08:17:32.197Z,3.90
2019-06-09T08:18:32.197Z,2.30
2019-06-09T08:19:32.197Z,5.30
2019-06-09T08:20:32.199Z,2.30
2019-06-09T08:21:32.200Z,2.20
2019-06-09T08:22:32.210Z,4.30
2019-06-09T08:23:32.212Z,2.30
2019-06-09T08:24:32.457Z,3.80
2019-06-09T08:25:32.209Z,3.80
2019-06-09T08:26:32.202Z,4.70
2019-06-09T08:27:32.205Z,1.70
2019-06-09T08:28:32.202Z,5.00
2019-06-09T08:29:32.210Z,3.40
2019-06-09T08:30:35.266Z,2.40
2019-06-09T08:31:32.208Z,2.60
2019-06-09T08:32:32.234Z,3.60
2019-06-09T08:33:32.227Z,1.60
2019-06-09T08:34:32.230Z,4.10
2019-06-09T08:35:32.226Z,6.00
2019-06-09T08:36:32.217Z,7.00
2019-06-09T08:37:32.268Z,5.90
2019-06-09T08:38:32.220Z,6.80
2019-06-09T08:39:34.929Z,4.70
2019-06-09T08:40:32.230Z,3.60
2019-06-09T08:41:32.230Z,3.10
2019-06-09T08:42:32.227Z,5.40
2019-06-09T08:43:32.733Z,2.60
2019-06-09T08:44:32.292Z,2.90
2019-06-09T08:45:32.238Z,3.90
2019-06-09T08:46:32.241Z,9.10
2019-06-09T08:47:32.247Z,4.10
2019-06-09T08:48:32.265Z,3.10
2019-06-09T08:49:32.255Z,6.30
2019-06-09T08:50:32.270Z,3.20
2019-06-09T08:51:32.265Z,2.20
2019-06-09T08:52:32.271Z,3.10
2019-06-09T08:53:32.410Z,3.10
2019-06-09T08:54:32.278Z,4.30
2019-06-09T08:55:32.284Z,2.60
2019-06-09T08:56:32.291Z,3.80
2019-06-09T08:57:32.296Z,5.20
2019-06-09T08:58:33.811Z,5.70
2019-06-09T08:59:32.309Z,3.10
2019-06-09T09:00:32.311Z,4.10
2019-06-09T09:01:32.379Z,1.90
2019-06-09T09:02:32.324Z,2.50
2019-06-09T09:03:32.330Z,2.20
2019-06-09T09:04:32.336Z,2.00
2019-06-09T09:05:32.345Z,5.10
2019-06-09T09:06:32.351Z,5.60
2019-06-09T09:07:32.351Z,4.10
2019-06-09T09:08:32.366Z,4.30
2019-06-09T09:09:33.469Z,0.90
2019-06-09T09:10:32.578Z,3.70
2019-06-09T09:11:32.383Z,3.50
2019-06-09T09:12:32.389Z,4.80
2019-06-09T09:13:32.394Z,3.40
2019-06-09T09:14:32.598Z,2.80
2019-06-09T09:15:32.405Z,3.90
2019-06-09T09:16:32.412Z,2.90
2019-06-09T09:17:32.428Z,2.90
2019-06-09T09:18:32.727Z,3.00
2019-06-09T09:19:32.444Z,3.80
2019-06-09T09:20:32.439Z,2.50
2019-06-09T09:21:32.446Z,3.20
2019-06-09T09:22:32.453Z,1.40
2019-06-09T09:23:32.458Z,4.60
2019-06-09T09:24:57.885Z,4.00
2019-06-09T09:25:32.476Z,3.50
2019-06-09T09:26:32.483Z,2.80
2019-06-09T09:27:32.488Z,2.10
2019-06-09T09:28:32.501Z,3.40
2019-06-09T09:29:32.502Z,3.30
2019-06-09T09:30:32.517Z,3.90
2019-06-09T09:31:32.563Z,3.50
2019-06-09T09:32:32.529Z,4.90
2019-06-09T09:33:32.643Z,1.90
2019-06-09T09:34:32.545Z,2.70
2019-06-09T09:35:32.550Z,1.90
2019-06-09T09:36:32.559Z,2.60
2019-06-09T09:37:32.564Z,4.10
2019-06-09T09:38:32.576Z,4.50
2019-06-09T09:39:35.629Z,2.90
2019-06-09T09:40:32.612Z,2.30
2019-06-09T09:41:32.603Z,3.30
2019-06-09T09:42:32.870Z,2.80
2019-06-09T09:43:32.614Z,3.50
2019-06-09T09:44:32.623Z,3.80
2019-06-09T09:45:32.634Z,3.30
2019-06-09T09:46:32.718Z,4.40
2019-06-09T09:47:35.429Z,3.60
2019-06-09T09:48:32.653Z,3.40
2019-06-09T09:49:32.762Z,3.80
2019-06-09T09:50:32.671Z,3.20
2019-06-09T09:51:32.678Z,2.60
2019-06-09T09:52:32.813Z,3.00
2019-06-09T09:53:32.756Z,3.70
2019-06-09T09:54:32.704Z,4.70
2019-06-09T09:55:32.713Z,2.60
2019-06-09T09:56:32.720Z,3.30
2019-06-09T09:57:33.129Z,4.60
2019-06-09T09:58:32.741Z,5.80
2019-06-09T09:59:32.746Z,4.20
2019-06-09T10:00:32.754Z,2.40
2019-06-09T10:01:32.761Z,3.30
2019-06-09T10:02:32.770Z,9.00
2019-06-09T10:03:32.780Z,4.20
2019-06-09T10:04:32.788Z,1.60
2019-06-09T10:05:32.793Z,2.70
2019-06-09T10:06:32.803Z,5.60
2019-06-09T10:07:32.813Z,4.90
2019-06-09T10:08:32.822Z,4.40
2019-06-09T10:09:46.678Z,2.40
2019-06-09T10:10:32.847Z,2.40
2019-06-09T10:11:32.848Z,4.70
2019-06-09T10:12:32.855Z,3.30
2019-06-09T10:13:32.868Z,4.20
2019-06-09T10:14:32.879Z,2.70
2019-06-09T10:15:32.970Z,3.80
2019-06-09T10:16:32.894Z,2.10
2019-06-09T10:17:32.902Z,3.30
2019-06-09T10:18:32.913Z,3.30
2019-06-09T10:19:32.921Z,5.20
2019-06-09T10:20:32.940Z,2.50
2019-06-09T10:21:32.942Z,3.90
2019-06-09T10:22:32.950Z,4.80
2019-06-09T10:23:32.958Z,4.80
2019-06-09T10:24:47.845Z,4.10
2019-06-09T10:25:32.978Z,3.40
2019-06-09T10:26:32.984Z,7.10
2019-06-09T10:27:32.996Z,2.90
2019-06-09T10:28:33.003Z,6.00
2019-06-09T10:29:33.232Z,2.50
2019-06-09T10:30:33.020Z,5.80
2019-06-09T10:31:33.042Z,2.70
2019-06-09T10:32:33.039Z,5.20
2019-06-09T10:33:33.056Z,3.50
2019-06-09T10:34:33.063Z,6.00
2019-06-09T10:35:33.207Z,4.00
2019-06-09T10:36:33.089Z,3.20
2019-06-09T10:37:33.091Z,4.50
2019-06-09T10:38:33.146Z,2.90
2019-06-09T10:39:33.919Z,6.70
2019-06-09T10:40:33.109Z,3.90
2019-06-09T10:41:33.118Z,3.10
2019-06-09T10:42:33.374Z,4.30
2019-06-09T10:43:33.135Z,4.90
2019-06-09T10:44:35.445Z,9.50
2019-06-09T10:45:33.156Z,2.00
2019-06-09T10:46:33.221Z,3.90
2019-06-09T10:47:33.168Z,2.40
2019-06-09T10:48:33.191Z,4.10
2019-06-09T10:49:33.191Z,4.40
2019-06-09T10:50:33.239Z,3.00
2019-06-09T10:51:33.205Z,5.30
2019-06-09T10:52:33.376Z,2.30
2019-06-09T10:53:33.226Z,2.30
2019-06-09T10:54:33.234Z,2.90
2019-06-09T10:55:33.246Z,3.50
2019-06-09T10:56:33.250Z,2.30
2019-06-09T10:57:33.266Z,2.00
2019-06-09T10:58:33.273Z,3.50
2019-06-09T10:59:33.278Z,5.30
2019-06-09T11:00:35.044Z,2.60
2019-06-09T11:01:33.302Z,3.80
2019-06-09T11:02:33.309Z,3.90
2019-06-09T11:03:33.319Z,4.80
2019-06-09T11:04:33.328Z,4.30
2019-06-09T11:05:33.335Z,3.90
2019-06-09T11:06:33.344Z,4.90
2019-06-09T11:07:33.352Z,3.50
2019-06-09T11:08:33.363Z,5.20
2019-06-09T11:09:33.372Z,3.20
2019-06-09T11:10:35.494Z,2.90
2019-06-09T11:11:33.393Z,6.60
2019-06-09T11:12:33.403Z,6.30
2019-06-09T11:13:33.409Z,2.10
2019-06-09T11:14:33.419Z,2.80
2019-06-09T11:15:33.426Z,3.30
2019-06-09T11:16:38.096Z,4.70
2019-06-09T11:17:33.457Z,5.90
2019-06-09T11:18:33.456Z,3.60
2019-06-09T11:19:35.971Z,4.90
2019-06-09T11:20:33.470Z,4.40
2019-06-09T11:21:36.217Z,4.00
2019-06-09T11:22:33.763Z,3.50
2019-06-09T11:23:33.498Z,2.90
2019-06-09T11:24:33.503Z,3.90
2019-06-09T11:25:33.524Z,3.50
2019-06-09T11:26:33.522Z,5.60
2019-06-09T11:27:33.543Z,1.60
2019-06-09T11:28:33.539Z,3.70
2019-06-09T11:29:33.549Z,3.20
2019-06-09T11:30:33.559Z,3.30
2019-06-09T11:31:33.572Z,3.30
2019-06-09T11:32:33.576Z,1.90
2019-06-09T11:33:33.584Z,3.20
2019-06-09T11:34:33.591Z,2.00
2019-06-09T11:35:33.603Z,2.40
2019-06-09T11:36:33.611Z,3.90
2019-06-09T11:37:34.006Z,2.00
2019-06-09T11:38:33.629Z,2.20
2019-06-09T11:39:33.635Z,3.00
2019-06-09T11:42:06.928Z,2.30
2019-06-09T11:43:06.766Z,3.30
2019-06-09T11:45:03.273Z,2.20
2019-06-09T11:46:02.675Z,1.50
2019-06-09T11:47:56.920Z,3.70
2019-06-09T11:48:55.574Z,3.90
2019-06-09T11:50:50.928Z,3.00
2019-06-09T11:51:51.816Z,2.30
2019-06-09T11:53:44.418Z,3.00
2019-06-09T11:54:44.362Z,2.50
2019-06-09T11:56:41.098Z,2.70
2019-06-09T11:57:41.011Z,2.30
2019-06-09T11:59:33.207Z,1.30
2019-06-09T12:00:33.165Z,2.10
2019-06-09T12:02:27.565Z,1.60
2019-06-09T12:03:27.566Z,1.90
2019-06-09T12:05:22.106Z,2.70
2019-06-09T12:06:21.975Z,3.80
2019-06-09T12:08:16.375Z,2.60
2019-06-09T12:09:16.383Z,4.40
2019-06-09T12:11:13.803Z,3.10
2019-06-09T12:12:11.334Z,2.20
2019-06-09T12:14:06.438Z,2.30
2019-06-09T12:15:06.870Z,2.80
2019-06-09T12:17:03.221Z,3.80
2019-06-09T12:18:02.360Z,3.30
2019-06-09T12:19:54.191Z,4.00
2019-06-09T12:20:54.458Z,2.70
2019-06-09T12:22:48.431Z,1.80
2019-06-09T12:23:48.431Z,1.60
2019-06-09T12:25:42.784Z,5.10
2019-06-09T12:26:42.787Z,3.40
2019-06-09T12:28:37.215Z,4.70
2019-06-09T12:29:37.223Z,4.20
2019-06-09T12:31:31.603Z,3.10
2019-06-09T12:32:31.581Z,3.40
2019-06-09T12:34:26.014Z,3.60
2019-06-09T12:35:25.979Z,3.50
2019-06-09T12:37:21.522Z,2.90
2019-06-09T12:38:21.502Z,4.50
2019-06-09T12:40:14.795Z,5.40
2019-06-09T12:41:28.378Z,3.60
2019-06-09T12:43:11.340Z,4.10
2019-06-09T12:44:11.813Z,2.90
2019-06-09T12:46:05.065Z,3.00
2019-06-09T12:47:04.437Z,1.90
2019-06-09T12:48:57.247Z,5.50
2019-06-09T12:49:57.269Z,5.50
2019-06-09T12:51:51.403Z,3.70
2019-06-09T12:52:51.582Z,4.00
2019-06-09T12:54:48.878Z,2.30
2019-06-09T12:55:45.767Z,2.90
2019-06-09T12:57:41.061Z,4.00
2019-06-09T12:58:41.335Z,5.50
2019-06-09T13:00:34.540Z,5.40
2019-06-09T13:01:34.544Z,3.50
2019-06-09T13:03:31.717Z,3.10
2019-06-09T13:04:30.760Z,4.60
2019-06-09T13:06:23.337Z,2.70
2019-06-09T13:07:23.337Z,2.50
2019-06-09T13:09:17.773Z,3.30
2019-06-09T13:10:17.738Z,3.50
2019-06-09T13:12:12.471Z,3.10
2019-06-09T13:13:13.837Z,3.30
2019-06-09T13:15:07.481Z,2.20
2019-06-09T13:16:21.933Z,2.20
2019-06-09T13:18:03.315Z,3.80
2019-06-09T13:19:00.915Z,4.60
2019-06-09T13:20:55.307Z,3.30
2019-06-09T13:21:55.309Z,2.80
2019-06-09T13:23:51.446Z,4.10
2019-06-09T13:24:51.268Z,5.10
2019-06-09T13:26:44.095Z,3.10
2019-06-09T13:27:44.088Z,3.60
2019-06-09T13:29:43.362Z,4.90
2019-06-09T13:30:43.330Z,3.40
2019-06-09T13:32:37.706Z,3.80
2019-06-09T13:33:37.712Z,3.50
2019-06-09T13:35:32.123Z,3.30
2019-06-09T13:36:32.100Z,2.50
2019-06-09T13:38:26.538Z,5.00
2019-06-09T13:39:26.486Z,5.40
2019-06-09T13:41:21.560Z,2.20
2019-06-09T13:42:21.174Z,4.10
2019-06-09T13:44:15.311Z,3.00
2019-06-09T13:45:16.746Z,3.70
2019-06-09T13:47:13.785Z,4.30
2019-06-09T13:48:10.584Z,4.30
2019-06-09T13:50:04.860Z,3.00
2019-06-09T13:51:04.517Z,2.60
2019-06-09T13:53:00.461Z,2.90
2019-06-09T13:53:58.453Z,2.40
2019-06-09T13:55:52.894Z,2.80
2019-06-09T13:56:52.854Z,3.30
2019-06-09T13:58:47.241Z,4.40
2019-06-09T13:59:47.247Z,4.60
2019-06-09T14:01:41.877Z,3.10
2019-06-09T14:02:41.634Z,2.00
2019-06-09T14:04:36.024Z,4.00